Time;durP1;ratioP1;P1;durP2;ratioP2;P2;SDS_P1;SDS_P2;PMS_P1;PMS_P2;Temp;Humidity;BMP_temperature;BMP_pressure;BME280_temperature;BME280_humidity;BME280_pressure;Samples;Min_cycle;Max_cycle;Signal;HPM_P1;HPM_P2
2022/01/27 00:04:33;;;;;;;0.10;0.10;;;;;;;;;;5073919;28;20068;-62
2022/01/27 00:06:59;;;;;;;0.10;0.10;;;;;;;;;;5039788;28;20408;-64
2022/01/27 00:09:42;;;;;;;0.10;0.10;;;;;;;;;;5074265;28;20043;-66
2022/01/27 00:12:08;;;;;;;0.10;0.10;;;;;;;;;;5056113;28;20062;-64
2022/01/27 00:14:33;;;;;;;0.20;0.20;;;;;;;;;;5074024;28;20040;-65
2022/01/27 00:17:03;;;;;;;0.10;0.10;;;;;;;;;;5073823;28;20032;-67
2022/01/27 00:19:28;;;;;;;0.10;0.10;;;;;;;;;;5039362;28;20490;-66
2022/01/27 00:21:54;;;;;;;0.10;0.10;;;;;;;;;;5074425;28;20079;-66
2022/01/27 00:24:19;;;;;;;0.10;0.10;;;;;;;;;;5056195;28;20058;-66
2022/01/27 00:26:45;;;;;;;0.15;0.15;;;;;;;;;;5073982;28;20028;-65
2022/01/27 00:29:11;;;;;;;0.10;0.10;;;;;;;;;;5055885;28;20040;-65
2022/01/27 00:31:37;;;;;;;0.10;0.10;;;;;;;;;;5073511;28;20036;-64
2022/01/27 00:34:04;;;;;;;0.10;0.10;;;;;;;;;;5073758;28;20060;-65
2022/01/27 00:36:30;;;;;;;0.10;0.10;;;;;;;;;;5039180;28;20020;-65
2022/01/27 00:38:56;;;;;;;0.10;0.10;;;;;;;;;;5070086;28;20118;-67
2022/01/27 00:41:23;;;;;;;0.10;0.10;;;;;;;;;;5093833;28;20466;-66
2022/01/27 00:43:49;;;;;;;1.10;1.05;;;;;;;;;;5058996;28;20071;-66
2022/01/27 00:46:16;;;;;;;0.65;0.65;;;;;;;;;;5075563;28;20067;-67
2022/01/27 00:48:43;;;;;;;0.20;0.20;;;;;;;;;;5075484;28;20119;-67
2022/01/27 00:51:11;;;;;;;0.60;0.60;;;;;;;;;;5075696;28;20063;-67
2022/01/27 00:53:49;;;;;;;0.20;0.20;;;;;;;;;;5093770;28;20467;-66
2022/01/27 00:58:51;;;;;;;0.63;0.63;;;;;;;;;;5075204;28;20079;-67
2022/01/27 01:01:20;;;;;;;0.20;0.20;;;;;;;;;;5093729;28;20119;-67
2022/01/27 01:03:49;;;;;;;0.10;0.10;;;;;;;;;;5058639;28;20059;-65
2022/01/27 01:06:41;;;;;;;0.10;0.10;;;;;;;;;;5058643;28;20032;-67
2022/01/27 01:33:08;;;;;;;0.30;0.30;;;;;;;;;;5075124;28;20059;-64
2022/01/27 01:36:01;;;;;;;0.25;0.25;;;;;;;;;;5058241;28;20114;-65
2022/01/27 01:38:29;;;;;;;0.45;0.45;;;;;;;;;;5074848;28;20036;-66
2022/01/27 01:40:56;;;;;;;1.05;1.02;;;;;;;;;;5093133;28;20101;-65
2022/01/27 01:43:22;;;;;;;0.10;0.10;;;;;;;;;;5074987;28;20745;-66
2022/01/27 01:45:48;;;;;;;0.10;0.10;;;;;;;;;;5092796;28;20119;-67
2022/01/27 01:48:17;;;;;;;0.55;0.55;;;;;;;;;;5093225;28;20028;-66
2022/01/27 01:50:43;;;;;;;0.10;0.10;;;;;;;;;;5093145;28;20115;-66
2022/01/27 01:53:09;;;;;;;0.20;0.20;;;;;;;;;;5074437;28;20039;-65
2022/01/27 01:55:34;;;;;;;1.95;1.50;;;;;;;;;;5074884;28;20032;-65
2022/01/27 01:58:00;;;;;;;0.10;0.10;;;;;;;;;;5092722;28;20379;-64
2022/01/27 02:00:26;;;;;;;0.10;0.10;;;;;;;;;;5092644;28;20024;-65
2022/01/27 02:02:52;;;;;;;0.10;0.10;;;;;;;;;;5074597;28;20039;-64
2022/01/27 02:05:19;;;;;;;0.20;0.20;;;;;;;;;;5074501;28;20032;-64
2022/01/27 02:08:27;;;;;;;3.05;2.95;;;;;;;;;;5073996;28;20114;-65
2022/01/27 02:19:13;;;;;;;0.20;0.20;;;;;;;;;;5092536;28;20036;-65
2022/01/27 02:21:48;;;;;;;0.10;0.10;;;;;;;;;;5092517;28;20035;-66
2022/01/27 02:24:14;;;;;;;0.47;0.47;;;;;;;;;;5061842;28;20024;-66
2022/01/27 02:26:40;;;;;;;0.10;0.10;;;;;;;;;;5099228;28;20027;-65
2022/01/27 02:29:05;;;;;;;0.10;0.10;;;;;;;;;;5081001;28;20036;-66
2022/01/27 02:31:31;;;;;;;0.10;0.10;;;;;;;;;;5081157;28;20394;-65
2022/01/27 02:33:57;;;;;;;1.33;1.23;;;;;;;;;;5099416;28;20436;-66
2022/01/27 02:36:22;;;;;;;1.00;1.00;;;;;;;;;;5064607;28;20026;-66
2022/01/27 02:38:48;;;;;;;0.10;0.10;;;;;;;;;;5098893;28;20028;-66
2022/01/27 02:41:16;;;;;;;0.30;0.30;;;;;;;;;;5098617;28;20039;-66
2022/01/27 02:43:41;;;;;;;2.63;2.53;;;;;;;;;;5080878;28;20027;-66
2022/01/27 02:46:08;;;;;;;0.10;0.10;;;;;;;;;;5080863;28;20118;-66
2022/01/27 02:48:34;;;;;;;0.10;0.10;;;;;;;;;;5099064;28;20095;-66
2022/01/27 02:51:00;;;;;;;0.10;0.10;;;;;;;;;;5098974;28;20123;-66
2022/01/27 02:53:25;;;;;;;0.20;0.20;;;;;;;;;;5080696;28;20187;-65
2022/01/27 02:55:51;;;;;;;0.55;0.55;;;;;;;;;;5098650;28;20608;-65
2022/01/27 02:58:16;;;;;;;0.10;0.10;;;;;;;;;;5098640;28;20472;-64
2022/01/27 03:00:42;;;;;;;1.25;1.20;;;;;;;;;;5099033;28;20027;-65
2022/01/27 03:03:07;;;;;;;1.35;1.35;;;;;;;;;;5098644;28;20077;-66
2022/01/27 03:05:33;;;;;;;0.40;0.40;;;;;;;;;;5080457;28;20040;-66
2022/01/27 03:08:01;;;;;;;0.10;0.10;;;;;;;;;;5080641;28;20039;-65
2022/01/27 03:10:28;;;;;;;0.13;0.13;;;;;;;;;;5080189;28;20460;-66
2022/01/27 03:12:59;;;;;;;0.20;0.20;;;;;;;;;;5080498;28;20028;-66
2022/01/27 03:15:26;;;;;;;0.10;0.10;;;;;;;;;;5080545;28;20066;-66
2022/01/27 03:17:51;;;;;;;0.32;0.32;;;;;;;;;;5098787;28;20043;-66
2022/01/27 03:20:19;;;;;;;0.20;0.20;;;;;;;;;;5098400;28;20028;-67
2022/01/27 03:22:45;;;;;;;0.50;0.50;;;;;;;;;;5080447;28;20040;-65
2022/01/27 03:25:11;;;;;;;0.55;0.55;;;;;;;;;;5079217;28;20047;-64
2022/01/27 03:27:43;;;;;;;0.60;0.60;;;;;;;;;;5080652;28;20038;-64
2022/01/27 03:30:09;;;;;;;27.30;22.08;;;;;;;;;;5063753;28;20112;-65
2022/01/27 03:32:35;;;;;;;0.10;0.10;;;;;;;;;;5080196;28;20028;-64
2022/01/27 03:35:00;;;;;;;0.10;0.10;;;;;;;;;;5095782;28;20038;-64
2022/01/27 03:37:26;;;;;;;0.10;0.10;;;;;;;;;;5094810;28;20028;-64
2022/01/27 03:39:51;;;;;;;0.15;0.15;;;;;;;;;;5060043;28;20115;-65
2022/01/27 03:42:17;;;;;;;0.10;0.10;;;;;;;;;;5076941;28;20407;-64
2022/01/27 03:44:42;;;;;;;0.10;0.10;;;;;;;;;;5094863;28;20020;-64
2022/01/27 03:47:08;;;;;;;0.10;0.10;;;;;;;;;;5094851;28;20467;-64
2022/01/27 03:49:34;;;;;;;0.10;0.10;;;;;;;;;;5094799;28;20032;-64
2022/01/27 03:52:01;;;;;;;0.10;0.10;;;;;;;;;;5094527;28;20028;-64
2022/01/27 03:54:26;;;;;;;0.10;0.10;;;;;;;;;;5059770;28;20040;-64
2022/01/27 03:56:52;;;;;;;0.10;0.10;;;;;;;;;;5059815;28;20054;-64
2022/01/27 03:59:17;;;;;;;0.10;0.10;;;;;;;;;;5094428;28;20024;-64
2022/01/27 04:01:43;;;;;;;0.70;0.45;;;;;;;;;;5093637;28;20032;-66
2022/01/27 04:04:08;;;;;;;0.20;0.20;;;;;;;;;;5054680;28;20106;-67
2022/01/27 04:06:38;;;;;;;0.20;0.20;;;;;;;;;;5052227;28;20480;-65
2022/01/27 04:09:04;;;;;;;;;;;;;;;;;;5070895;28;20033;-65
2022/01/27 04:11:29;;;;;;;0.10;0.10;;;;;;;;;;5070227;28;20326;-64
2022/01/27 04:13:55;;;;;;;0.40;0.40;;;;;;;;;;5070352;28;20358;-64
2022/01/27 04:16:20;;;;;;;0.10;0.10;;;;;;;;;;5035783;28;20076;-66
2022/01/27 04:18:46;;;;;;;0.10;0.10;;;;;;;;;;5070221;28;20357;-66
2022/01/27 04:21:12;;;;;;;0.10;0.10;;;;;;;;;;5052461;28;20433;-67
2022/01/27 04:23:38;;;;;;;0.10;0.10;;;;;;;;;;5035561;28;20480;-68
2022/01/27 04:26:05;;;;;;;0.10;0.10;;;;;;;;;;5070222;28;20082;-66
2022/01/27 04:28:33;;;;;;;0.10;0.10;;;;;;;;;;5052499;28;20085;-65
2022/01/27 04:31:02;;;;;;;0.10;0.10;;;;;;;;;;5035445;28;20054;-65
2022/01/27 04:33:30;;;;;;;0.10;0.10;;;;;;;;;;5052001;28;20123;-64
2022/01/27 04:35:59;;;;;;;0.10;0.10;;;;;;;;;;5035424;28;20035;-66
2022/01/27 04:38:32;;;;;;;0.10;0.10;;;;;;;;;;5035381;28;20384;-66
2022/01/27 04:46:20;;;;;;;0.10;0.10;;;;;;;;;;5069999;28;20028;-67
2022/01/27 04:48:53;;;;;;;0.22;0.22;;;;;;;;;;5051504;28;20056;-66
2022/01/27 04:51:22;;;;;;;0.10;0.10;;;;;;;;;;5035428;28;20036;-64
2022/01/27 04:54:04;;;;;;;0.10;0.10;;;;;;;;;;5034693;28;20052;-65
2022/01/27 04:56:31;;;;;;;0.25;0.25;;;;;;;;;;5069689;28;20069;-64
2022/01/27 04:59:02;;;;;;;0.10;0.10;;;;;;;;;;5051816;28;20106;-65
2022/01/27 05:01:39;;;;;;;0.10;0.10;;;;;;;;;;5034940;28;20072;-67
2022/01/27 05:04:13;;;;;;;0.10;0.10;;;;;;;;;;5035117;28;20056;-65
2022/01/27 05:06:38;;;;;;;0.10;0.10;;;;;;;;;;5051187;28;20043;-65
2022/01/27 05:09:04;;;;;;;0.10;0.10;;;;;;;;;;5051590;28;20021;-64
2022/01/27 05:11:35;;;;;;;0.10;0.10;;;;;;;;;;5051099;28;20131;-65
2022/01/27 05:14:11;;;;;;;0.10;0.10;;;;;;;;;;5034694;28;20040;-65
2022/01/27 05:16:36;;;;;;;0.10;0.10;;;;;;;;;;5058919;28;20480;-65
2022/01/27 05:19:04;;;;;;;0.10;0.10;;;;;;;;;;5089287;28;20038;-64
2022/01/27 05:21:31;;;;;;;0.10;0.10;;;;;;;;;;5054608;28;20036;-64
2022/01/27 05:23:57;;;;;;;0.10;0.10;;;;;;;;;;5071401;28;20028;-63
2022/01/27 05:26:22;;;;;;;0.10;0.10;;;;;;;;;;5089174;28;20034;-63
2022/01/27 05:28:48;;;;;;;0.20;0.20;;;;;;;;;;5071223;28;20035;-66
2022/01/27 05:31:13;;;;;;;0.10;0.10;;;;;;;;;;5089554;28;20119;-67
2022/01/27 05:33:39;;;;;;;1.35;0.52;;;;;;;;;;5089202;28;20462;-66
2022/01/27 05:36:04;;;;;;;0.10;0.10;;;;;;;;;;5071021;28;20040;-66
2022/01/27 05:38:30;;;;;;;0.10;0.10;;;;;;;;;;5089337;28;20547;-66
2022/01/27 05:40:55;;;;;;;0.10;0.10;;;;;;;;;;5054181;28;20494;-67
2022/01/27 05:43:21;;;;;;;0.10;0.10;;;;;;;;;;5070994;28;20119;-67
2022/01/27 05:45:46;;;;;;;0.10;0.10;;;;;;;;;;5054061;28;20027;-69
2022/01/27 05:48:13;;;;;;;0.10;0.10;;;;;;;;;;5071262;28;20395;-66
2022/01/27 05:50:40;;;;;;;3.30;1.73;;;;;;;;;;5070217;28;20067;-69
2022/01/27 05:53:06;;;;;;;10.27;9.63;;;;;;;;;;5070684;28;20511;-66
2022/01/27 05:55:31;;;;;;;0.30;0.30;;;;;;;;;;5070578;28;20031;-64
2022/01/27 05:57:57;;;;;;;0.10;0.10;;;;;;;;;;5087862;28;20154;-66
2022/01/27 06:00:22;;;;;;;0.85;0.85;;;;;;;;;;5070043;28;20032;-65
2022/01/27 06:02:48;;;;;;;0.10;0.10;;;;;;;;;;5045268;28;20120;-65
2022/01/27 06:05:14;;;;;;;0.90;0.90;;;;;;;;;;5068762;28;20453;-65
2022/01/27 06:07:39;;;;;;;0.10;0.10;;;;;;;;;;5051358;28;20482;-66
2022/01/27 06:10:05;;;;;;;0.10;0.10;;;;;;;;;;5050494;28;20032;-64
2022/01/27 06:12:31;;;;;;;0.10;0.10;;;;;;;;;;5050555;28;20068;-64
2022/01/27 06:14:56;;;;;;;0.10;0.10;;;;;;;;;;5033656;28;20064;-65
2022/01/27 06:17:22;;;;;;;4.28;3.92;;;;;;;;;;5033605;28;20874;-67
2022/01/27 06:19:48;;;;;;;6.13;5.68;;;;;;;;;;5034087;28;20032;-68
2022/01/27 06:22:14;;;;;;;0.10;0.10;;;;;;;;;;5034250;28;20048;-63
2022/01/27 06:24:43;;;;;;;0.10;0.10;;;;;;;;;;5050204;28;20079;-64
2022/01/27 06:27:09;;;;;;;0.10;0.10;;;;;;;;;;5050782;28;20024;-63
2022/01/27 06:29:35;;;;;;;0.10;0.10;;;;;;;;;;5068429;28;20094;-64
2022/01/27 06:32:02;;;;;;;0.10;0.10;;;;;;;;;;5068210;28;20034;-67
2022/01/27 06:34:27;;;;;;;0.10;0.10;;;;;;;;;;5050404;28;20037;-65
2022/01/27 06:36:53;;;;;;;0.10;0.10;;;;;;;;;;5033511;28;20078;-65
2022/01/27 06:39:18;;;;;;;0.20;0.20;;;;;;;;;;5033127;28;20111;-66
2022/01/27 06:41:44;;;;;;;0.10;0.10;;;;;;;;;;5033236;28;20035;-65
2022/01/27 06:44:10;;;;;;;0.10;0.10;;;;;;;;;;5050522;28;20495;-65
2022/01/27 06:46:36;;;;;;;0.10;0.10;;;;;;;;;;5049825;28;20056;-64
2022/01/27 06:49:02;;;;;;;0.10;0.10;;;;;;;;;;5033770;28;20040;-64
2022/01/27 06:51:29;;;;;;;0.10;0.10;;;;;;;;;;5033609;28;20086;-64
2022/01/27 06:53:54;;;;;;;0.43;0.43;;;;;;;;;;5049528;28;20033;-65
2022/01/27 06:56:20;;;;;;;0.10;0.10;;;;;;;;;;5050118;28;20028;-62
2022/01/27 06:58:45;;;;;;;0.57;0.57;;;;;;;;;;5033119;28;20076;-63
2022/01/27 07:01:11;;;;;;;0.10;0.10;;;;;;;;;;5033057;28;20035;-64
2022/01/27 07:03:36;;;;;;;0.10;0.10;;;;;;;;;;5050018;28;20044;-64
2022/01/27 07:06:02;;;;;;;0.10;0.10;;;;;;;;;;5033160;28;20384;-65
2022/01/27 07:08:27;;;;;;;0.10;0.10;;;;;;;;;;5050504;28;20045;-64
2022/01/27 07:10:53;;;;;;;0.10;0.10;;;;;;;;;;5057820;28;20024;-65
2022/01/27 07:13:19;;;;;;;0.10;0.10;;;;;;;;;;5053831;28;20036;-64
2022/01/27 07:15:44;;;;;;;0.10;0.10;;;;;;;;;;5073158;28;20039;-66
2022/01/27 07:18:09;;;;;;;0.20;0.20;;;;;;;;;;5091141;28;20581;-64
2022/01/27 07:20:36;;;;;;;0.20;0.20;;;;;;;;;;5091051;28;20028;-64
2022/01/27 07:23:01;;;;;;;0.32;0.32;;;;;;;;;;5091544;28;20089;-67
2022/01/27 07:25:27;;;;;;;0.10;0.10;;;;;;;;;;5064198;28;20027;-66
2022/01/27 07:27:52;;;;;;;0.10;0.10;;;;;;;;;;5045979;28;20134;-64
2022/01/27 07:30:18;;;;;;;0.20;0.20;;;;;;;;;;5044893;28;20109;-64
2022/01/27 07:32:43;;;;;;;0.10;0.10;;;;;;;;;;5080805;28;20356;-65
2022/01/27 07:35:09;;;;;;;0.10;0.10;;;;;;;;;;5080349;28;20032;-65
2022/01/27 07:37:34;;;;;;;0.20;0.20;;;;;;;;;;5061516;28;20051;-64
2022/01/27 07:40:00;;;;;;;0.15;0.15;;;;;;;;;;5046890;28;20032;-63
2022/01/27 07:42:25;;;;;;;0.10;0.10;;;;;;;;;;5062965;28;20077;-64
2022/01/27 07:44:53;;;;;;;0.10;0.10;;;;;;;;;;5044790;28;20028;-65
2022/01/27 07:47:18;;;;;;;0.10;0.10;;;;;;;;;;5059517;28;20054;-65
2022/01/27 07:49:44;;;;;;;0.20;0.20;;;;;;;;;;5061626;28;20034;-65
2022/01/27 07:52:09;;;;;;;0.20;0.20;;;;;;;;;;5050185;28;20112;-64
2022/01/27 07:54:35;;;;;;;0.20;0.20;;;;;;;;;;5059613;28;20536;-65
2022/01/27 07:57:00;;;;;;;0.20;0.20;;;;;;;;;;5048104;28;20021;-67
2022/01/27 07:59:26;;;;;;;0.20;0.20;;;;;;;;;;5060485;28;20389;-64
2022/01/27 08:01:51;;;;;;;0.10;0.10;;;;;;;;;;5061960;28;20475;-62
2022/01/27 08:04:17;;;;;;;0.10;0.10;;;;;;;;;;5063158;28;20041;-62
2022/01/27 08:06:42;;;;;;;0.20;0.20;;;;;;;;;;5061160;28;20040;-65
2022/01/27 08:09:08;;;;;;;0.40;0.40;;;;;;;;;;5079897;28;20073;-63
2022/01/27 08:11:33;;;;;;;0.20;0.20;;;;;;;;;;5077859;28;20049;-64
2022/01/27 08:13:59;;;;;;;0.57;0.57;;;;;;;;;;5062798;28;20012;-66
2022/01/27 08:16:25;;;;;;;0.82;0.82;;;;;;;;;;5073123;28;20033;-63
2022/01/27 08:18:50;;;;;;;0.20;0.20;;;;;;;;;;5025470;28;20089;-64
2022/01/27 08:21:16;;;;;;;0.30;0.30;;;;;;;;;;5078017;28;20123;-64
2022/01/27 08:23:43;;;;;;;0.32;0.32;;;;;;;;;;5078878;28;20028;-64
2022/01/27 08:26:12;;;;;;;0.20;0.20;;;;;;;;;;5059105;28;20058;-65
2022/01/27 08:28:45;;;;;;;0.40;0.40;;;;;;;;;;5035177;28;20097;-62
2022/01/27 08:31:12;;;;;;;0.20;0.20;;;;;;;;;;5051537;28;20559;-61
2022/01/27 08:33:39;;;;;;;0.10;0.10;;;;;;;;;;5033469;28;20539;-65
2022/01/27 08:36:05;;;;;;;0.20;0.20;;;;;;;;;;5067919;28;20067;-62
2022/01/27 08:38:31;;;;;;;0.10;0.10;;;;;;;;;;5068061;28;20047;-65
2022/01/27 08:40:59;;;;;;;1.85;0.80;;;;;;;;;;5063047;28;20028;-65
2022/01/27 08:43:24;;;;;;;0.20;0.20;;;;;;;;;;5087331;28;20058;-66
2022/01/27 08:45:50;;;;;;;0.20;0.20;;;;;;;;;;5066553;28;20592;-65
2022/01/27 08:48:20;;;;;;;0.20;0.20;;;;;;;;;;5055403;28;20138;-64
2022/01/27 08:50:53;;;;;;;0.25;0.25;;;;;;;;;;5051173;28;20047;-64
2022/01/27 08:53:18;;;;;;;0.30;0.30;;;;;;;;;;5054314;28;20035;-65
2022/01/27 08:55:44;;;;;;;2.65;2.55;;;;;;;;;;5043555;28;20391;-64
2022/01/27 08:58:11;;;;;;;0.10;0.10;;;;;;;;;;5077978;28;20400;-65
2022/01/27 09:00:36;;;;;;;3.75;3.50;;;;;;;;;;5063627;28;20036;-66
2022/01/27 09:03:01;;;;;;;0.20;0.20;;;;;;;;;;5060446;28;20034;-66
2022/01/27 09:05:27;;;;;;;0.20;0.20;;;;;;;;;;5062112;28;20028;-67
2022/01/27 09:07:56;;;;;;;0.57;0.38;;;;;;;;;;5078005;28;20112;-67
2022/01/27 09:10:22;;;;;;;0.30;0.30;;;;;;;;;;5058163;28;20035;-67
2022/01/27 09:12:47;;;;;;;0.30;0.30;;;;;;;;;;5059375;28;20032;-66
2022/01/27 09:15:13;;;;;;;0.20;0.20;;;;;;;;;;5079462;28;20035;-66
2022/01/27 09:17:40;;;;;;;0.20;0.20;;;;;;;;;;5078878;28;20036;-67
2022/01/27 09:20:07;;;;;;;0.40;0.40;;;;;;;;;;5045880;28;20105;-65
2022/01/27 09:22:35;;;;;;;0.30;0.30;;;;;;;;;;5062082;28;20020;-65
2022/01/27 09:25:08;;;;;;;0.28;0.28;;;;;;;;;;5078248;28;20050;-65
2022/01/27 09:27:34;;;;;;;0.20;0.20;;;;;;;;;;5079977;28;20050;-66
2022/01/27 09:29:59;;;;;;;0.20;0.20;;;;;;;;;;5060777;28;20021;-65
2022/01/27 09:32:26;;;;;;;1.10;1.10;;;;;;;;;;5077486;28;20101;-66
2022/01/27 09:34:52;;;;;;;0.30;0.30;;;;;;;;;;5074739;28;20020;-65
2022/01/27 09:37:18;;;;;;;2.95;2.67;;;;;;;;;;5077783;28;20111;-66
2022/01/27 09:39:44;;;;;;;0.20;0.20;;;;;;;;;;5076515;28;20574;-66
2022/01/27 09:42:12;;;;;;;0.20;0.20;;;;;;;;;;5078121;28;20127;-66
2022/01/27 09:44:41;;;;;;;0.40;0.40;;;;;;;;;;5077706;28;20077;-65
2022/01/27 09:47:13;;;;;;;0.20;0.20;;;;;;;;;;5078232;28;20020;-64
2022/01/27 09:49:49;;;;;;;0.65;0.65;;;;;;;;;;5082450;28;20126;-65
2022/01/27 09:52:15;;;;;;;0.38;0.38;;;;;;;;;;5070972;28;20056;-64
2022/01/27 09:54:40;;;;;;;0.20;0.20;;;;;;;;;;5077323;28;20048;-64
2022/01/27 09:57:06;;;;;;;0.30;0.30;;;;;;;;;;5063427;28;20066;-63
2022/01/27 09:59:31;;;;;;;0.20;0.20;;;;;;;;;;5088622;28;20032;-63
2022/01/27 10:01:57;;;;;;;0.20;0.20;;;;;;;;;;5075411;28;20113;-62
2022/01/27 10:04:24;;;;;;;0.20;0.20;;;;;;;;;;5049992;28;20035;-65
2022/01/27 10:06:55;;;;;;;0.28;0.28;;;;;;;;;;5068250;28;20039;-63
2022/01/27 10:09:29;;;;;;;0.30;0.30;;;;;;;;;;5034041;28;20044;-65
2022/01/27 10:11:54;;;;;;;0.20;0.20;;;;;;;;;;5055225;28;20539;-65
2022/01/27 10:14:21;;;;;;;0.20;0.20;;;;;;;;;;5089048;28;20127;-63
2022/01/27 10:16:49;;;;;;;0.30;0.30;;;;;;;;;;5075501;28;20387;-62
2022/01/27 10:19:15;;;;;;;0.20;0.20;;;;;;;;;;5059754;28;20098;-61
2022/01/27 10:21:40;;;;;;;0.30;0.30;;;;;;;;;;5070464;28;20024;-63
2022/01/27 10:24:15;;;;;;;0.20;0.20;;;;;;;;;;5070934;28;20040;-63
2022/01/27 10:26:44;;;;;;;0.30;0.30;;;;;;;;;;5065965;28;20032;-64
2022/01/27 10:29:14;;;;;;;;;;;;;;;;;;5054017;28;20032;-63
2022/01/27 10:31:42;;;;;;;0.30;0.30;;;;;;;;;;5053136;28;20375;-63
2022/01/27 10:34:10;;;;;;;0.20;0.20;;;;;;;;;;5088241;28;20035;-63
2022/01/27 10:36:40;;;;;;;0.85;0.70;;;;;;;;;;5070127;28;20089;-63
2022/01/27 10:39:05;;;;;;;0.20;0.20;;;;;;;;;;5067645;28;20028;-70
2022/01/27 10:41:33;;;;;;;0.35;0.35;;;;;;;;;;5083997;28;20040;-75
2022/01/27 10:44:06;;;;;;;0.70;0.70;;;;;;;;;;5069055;28;20052;-78
2022/01/27 10:46:32;;;;;;;1.52;1.48;;;;;;;;;;5052512;28;20050;-72
2022/01/27 10:49:06;;;;;;;0.30;0.30;;;;;;;;;;5080218;28;20025;-72
2022/01/27 10:51:41;;;;;;;0.25;0.25;;;;;;;;;;5051666;28;20054;-74
2022/01/27 10:54:19;;;;;;;0.38;0.38;;;;;;;;;;5077722;28;20025;-72
2022/01/27 10:56:45;;;;;;;2.28;1.75;;;;;;;;;;5077784;28;20089;-70
2022/01/27 10:59:15;;;;;;;0.73;0.50;;;;;;;;;;5075783;28;20156;-74
2022/01/27 11:01:48;;;;;;;1.58;1.48;;;;;;;;;;5087867;28;20441;-72
2022/01/27 11:04:14;;;;;;;1.75;1.33;;;;;;;;;;5075387;28;20024;-72
2022/01/27 11:06:57;;;;;;;0.88;0.63;;;;;;;;;;5068428;28;20028;-74
2022/01/27 11:09:23;;;;;;;4.00;1.85;;;;;;;;;;5078046;28;20781;-73
2022/01/27 11:11:50;;;;;;;0.30;0.30;;;;;;;;;;5072031;28;20027;-74
2022/01/27 11:14:15;;;;;;;0.45;0.45;;;;;;;;;;5042677;28;20422;-77
2022/01/27 11:16:44;;;;;;;1.75;0.95;;;;;;;;;;5077045;28;20099;-75
2022/01/27 11:21:40;;;;;;;3.42;3.13;;;;;;;;;;5079419;28;20085;-78
2022/01/27 11:24:15;;;;;;;0.30;0.30;;;;;;;;;;5063096;28;20048;-78
2022/01/27 11:26:43;;;;;;;0.63;0.63;;;;;;;;;;5050969;28;20036;-77
2022/01/27 11:29:09;;;;;;;0.30;0.30;;;;;;;;;;5050878;28;20043;-76
2022/01/27 11:31:42;;;;;;;0.20;0.20;;;;;;;;;;5072951;28;20020;-75
2022/01/27 11:34:09;;;;;;;1.45;1.35;;;;;;;;;;5077362;28;20029;-72
2022/01/27 11:36:37;;;;;;;0.30;0.30;;;;;;;;;;5054838;28;20436;-74
2022/01/27 11:39:03;;;;;;;0.40;0.40;;;;;;;;;;5064891;28;20098;-72
2022/01/27 11:41:38;;;;;;;2.05;1.23;;;;;;;;;;5077178;28;20029;-74
2022/01/27 11:44:22;;;;;;;0.88;0.88;;;;;;;;;;5086979;28;20032;-74
2022/01/27 11:47:06;;;;;;;0.20;0.20;;;;;;;;;;5068597;28;20028;-74
2022/01/27 11:50:01;;;;;;;0.80;0.55;;;;;;;;;;5069309;28;20036;-73
2022/01/27 11:52:46;;;;;;;0.88;0.88;;;;;;;;;;5062891;28;20024;-74
2022/01/27 11:55:24;;;;;;;0.73;0.73;;;;;;;;;;5035831;28;20082;-73
2022/01/27 11:57:51;;;;;;;0.50;0.50;;;;;;;;;;5069764;28;20035;-73
2022/01/27 12:00:17;;;;;;;1.13;0.75;;;;;;;;;;5052364;28;20365;-73
2022/01/27 12:03:01;;;;;;;0.77;0.50;;;;;;;;;;5070299;28;20044;-70
2022/01/27 12:05:40;;;;;;;3.30;1.20;;;;;;;;;;5052457;28;20048;-70
2022/01/27 12:08:15;;;;;;;0.28;0.28;;;;;;;;;;5035486;28;20124;-73
2022/01/27 12:10:45;;;;;;;0.40;0.40;;;;;;;;;;5034980;28;20036;-72
2022/01/27 12:16:10;;;;;;;0.35;0.35;;;;;;;;;;5070600;28;20036;-72
2022/01/27 12:18:37;;;;;;;1.13;1.02;;;;;;;;;;5051711;28;20047;-72
2022/01/27 12:21:22;;;;;;;0.55;0.55;;;;;;;;;;5076191;28;20039;-73
2022/01/27 12:24:06;;;;;;;0.40;0.40;;;;;;;;;;5069880;28;20039;-73
2022/01/27 12:26:51;;;;;;;0.65;0.60;;;;;;;;;;5069912;28;20040;-73
2022/01/27 12:29:31;;;;;;;0.50;0.50;;;;;;;;;;5037285;28;20029;-73
2022/01/27 12:31:58;;;;;;;1.73;1.52;;;;;;;;;;5051540;28;20036;-73
2022/01/27 12:34:28;;;;;;;0.30;0.30;;;;;;;;;;5052281;28;20090;-73
2022/01/27 12:36:54;;;;;;;0.98;0.60;;;;;;;;;;5051880;28;20032;-70
2022/01/27 12:39:21;;;;;;;1.73;0.88;;;;;;;;;;5047389;28;20051;-70
2022/01/27 12:41:48;;;;;;;0.82;0.82;;;;;;;;;;5051622;28;20033;-73
2022/01/27 12:44:13;;;;;;;0.32;0.32;;;;;;;;;;5036215;28;20059;-73
2022/01/27 12:46:39;;;;;;;0.20;0.20;;;;;;;;;;5044781;28;20056;-73
2022/01/27 12:49:04;;;;;;;1.33;0.75;;;;;;;;;;5070604;28;20067;-72
2022/01/27 12:51:52;;;;;;;0.30;0.30;;;;;;;;;;5083842;28;20027;-71
2022/01/27 12:54:24;;;;;;;1.95;0.85;;;;;;;;;;5076371;28;20064;-71
2022/01/27 12:56:50;;;;;;;0.80;0.80;;;;;;;;;;5059434;28;20032;-72
2022/01/27 12:59:15;;;;;;;0.63;0.63;;;;;;;;;;5078384;28;20038;-72
2022/01/27 13:01:41;;;;;;;0.60;0.60;;;;;;;;;;5076121;28;20111;-72
2022/01/27 13:04:06;;;;;;;0.90;0.80;;;;;;;;;;5084094;28;20024;-72
2022/01/27 13:06:32;;;;;;;0.20;0.20;;;;;;;;;;5070684;28;20414;-72
2022/01/27 13:09:13;;;;;;;0.25;0.25;;;;;;;;;;5050689;28;20497;-71
2022/01/27 13:11:40;;;;;;;1.40;0.80;;;;;;;;;;5057469;28;20032;-71
2022/01/27 13:14:08;;;;;;;1.00;0.88;;;;;;;;;;5087828;28;20036;-73
2022/01/27 13:16:41;;;;;;;2.58;1.77;;;;;;;;;;5087917;28;20028;-72
2022/01/27 13:19:18;;;;;;;3.67;2.28;;;;;;;;;;5054470;28;20486;-73
2022/01/27 13:21:49;;;;;;;2.35;2.17;;;;;;;;;;5061548;28;20036;-73
2022/01/27 13:24:17;;;;;;;2.75;1.60;;;;;;;;;;5061531;28;20081;-71
2022/01/27 13:26:45;;;;;;;0.30;0.30;;;;;;;;;;5078048;28;20039;-72
2022/01/27 13:29:19;;;;;;;0.20;0.20;;;;;;;;;;5082262;28;20273;-72
2022/01/27 13:31:45;;;;;;;0.20;0.20;;;;;;;;;;5078846;28;20024;-73
2022/01/27 13:34:11;;;;;;;1.02;0.88;;;;;;;;;;5062995;28;20384;-73
2022/01/27 13:36:37;;;;;;;1.60;1.50;;;;;;;;;;5088536;28;20028;-73
2022/01/27 13:41:29;;;;;;;0.35;0.35;;;;;;;;;;5081917;28;20032;-72
2022/01/27 13:44:02;;;;;;;0.30;0.30;;;;;;;;;;5072808;28;20070;-73
2022/01/27 13:46:38;;;;;;;0.40;0.40;;;;;;;;;;5065303;28;20054;-73
2022/01/27 13:49:13;;;;;;;0.30;0.30;;;;;;;;;;5056542;28;20038;-72
2022/01/27 13:51:46;;;;;;;2.22;1.10;;;;;;;;;;5063986;28;20055;-74
2022/01/27 13:54:12;;;;;;;0.50;0.50;;;;;;;;;;5067627;28;20079;-70
2022/01/27 13:56:37;;;;;;;1.75;0.95;;;;;;;;;;5066731;28;20085;-72
2022/01/27 13:59:10;;;;;;;2.85;1.77;;;;;;;;;;5086280;28;20036;-71
2022/01/27 14:01:36;;;;;;;0.50;0.50;;;;;;;;;;5052044;28;20132;-70
2022/01/27 14:04:02;;;;;;;2.28;1.67;;;;;;;;;;5086811;28;20487;-73
2022/01/27 14:06:28;;;;;;;2.03;1.52;;;;;;;;;;5086726;28;20387;-73
2022/01/27 14:08:57;;;;;;;1.40;0.73;;;;;;;;;;5068453;28;20031;-73
2022/01/27 14:11:36;;;;;;;1.23;0.88;;;;;;;;;;5053839;28;20434;-73
2022/01/27 14:14:04;;;;;;;3.25;1.15;;;;;;;;;;5053626;28;20127;-71
2022/01/27 14:16:31;;;;;;;0.20;0.20;;;;;;;;;;5052718;28;20101;-72
2022/01/27 14:19:07;;;;;;;0.82;0.60;;;;;;;;;;5046465;28;20492;-71
2022/01/27 14:21:39;;;;;;;0.25;0.25;;;;;;;;;;5072910;28;20020;-72
2022/01/27 14:24:20;;;;;;;6.57;1.70;;;;;;;;;;5042811;28;20032;-71
2022/01/27 14:26:59;;;;;;;0.20;0.20;;;;;;;;;;5063222;28;20063;-71
2022/01/27 14:29:24;;;;;;;0.20;0.20;;;;;;;;;;5068375;28;20036;-73
2022/01/27 14:31:50;;;;;;;4.47;2.70;;;;;;;;;;5087212;28;20265;-72
2022/01/27 14:34:26;;;;;;;7.50;2.35;;;;;;;;;;5069849;28;20036;-70
2022/01/27 14:36:52;;;;;;;1.40;0.57;;;;;;;;;;5088048;28;20032;-71
2022/01/27 14:39:17;;;;;;;6.55;3.78;;;;;;;;;;5088350;28;20028;-72
2022/01/27 14:41:43;;;;;;;1.48;1.15;;;;;;;;;;5087971;28;20392;-73
2022/01/27 14:44:08;;;;;;;1.17;1.08;;;;;;;;;;5069746;28;20032;-72
2022/01/27 14:46:41;;;;;;;5.15;2.58;;;;;;;;;;5087828;28;20040;-71
2022/01/27 14:49:07;;;;;;;8.85;4.65;;;;;;;;;;5053373;28;20036;-73
2022/01/27 14:51:34;;;;;;;3.83;1.67;;;;;;;;;;5062840;28;20035;-74
2022/01/27 14:54:01;;;;;;;6.90;2.72;;;;;;;;;;5038610;28;20032;-73
2022/01/27 14:56:26;;;;;;;5.22;2.88;;;;;;;;;;5033316;28;20024;-73
2022/01/27 14:58:52;;;;;;;5.38;3.97;;;;;;;;;;5049495;28;20067;-72
2022/01/27 15:01:18;;;;;;;0.40;0.40;;;;;;;;;;5067434;28;20061;-73
2022/01/27 15:03:44;;;;;;;1.13;0.95;;;;;;;;;;5067305;28;20029;-72
2022/01/27 15:06:09;;;;;;;2.83;2.25;;;;;;;;;;5067436;28;20086;-73
2022/01/27 15:08:35;;;;;;;1.27;1.15;;;;;;;;;;5049800;28;20064;-74
2022/01/27 15:11:00;;;;;;;1.50;1.38;;;;;;;;;;5049775;28;20044;-74
2022/01/27 15:13:26;;;;;;;0.55;0.40;;;;;;;;;;5066711;28;20040;-74
2022/01/27 15:18:53;;;;;;;6.03;1.05;;;;;;;;;;5066799;28;20036;-74
2022/01/27 15:21:19;;;;;;;1.85;1.35;;;;;;;;;;5048053;28;20033;-73
2022/01/27 15:23:47;;;;;;;3.15;2.22;;;;;;;;;;5065762;28;20036;-73
2022/01/27 15:26:12;;;;;;;6.50;4.10;;;;;;;;;;5047800;28;20044;-74
2022/01/27 15:28:38;;;;;;;3.13;1.77;;;;;;;;;;5066808;28;20028;-75
2022/01/27 15:31:04;;;;;;;4.65;2.25;;;;;;;;;;5069638;28;20085;-74
2022/01/27 15:33:30;;;;;;;1.48;1.17;;;;;;;;;;5071124;28;20024;-74
2022/01/27 15:35:56;;;;;;;0.30;0.30;;;;;;;;;;5089338;28;20517;-74
2022/01/27 15:38:25;;;;;;;5.20;3.50;;;;;;;;;;5090165;28;20433;-72
2022/01/27 15:40:51;;;;;;;2.05;1.15;;;;;;;;;;5072777;28;20043;-74
2022/01/27 15:43:17;;;;;;;3.40;2.63;;;;;;;;;;5052284;28;20036;-72